Time;durP1;ratioP1;P1;durP2;ratioP2;P2;SDS_P1;SDS_P2;PMS_P1;PMS_P2;Temp;Humidity;BMP_temperature;BMP_pressure;BME280_temperature;BME280_humidity;BME280_pressure;Samples;Min_cycle;Max_cycle;Signal;HPM_P1;HPM_P2
2022/08/09 00:01:48;;;;;;;4.58;2.80;;;;;;;21.22;75.04;99419.28;1722523;83;21001;-80
2022/08/09 00:04:17;;;;;;;5.78;3.02;;;;;;;21.20;74.72;99417.69;1707067;82;21120;-80
2022/08/09 00:06:43;;;;;;;4.62;2.90;;;;;;;21.22;74.88;99408.70;1721605;82;21025;-80
2022/08/09 00:09:11;;;;;;;6.55;3.10;;;;;;;21.22;75.20;99403.90;1711834;82;21505;-80
2022/08/09 00:11:38;;;;;;;7.47;3.27;;;;;;;21.24;75.05;99408.13;1722007;82;21009;-79
2022/08/09 00:14:05;;;;;;;5.30;3.08;;;;;;;21.27;74.83;99407.11;1712951;83;21017;-80
2022/08/09 00:16:32;;;;;;;4.83;2.83;;;;;;;21.29;75.34;99406.54;1717753;82;20989;-81
2022/08/09 00:18:59;;;;;;;5.62;2.72;;;;;;;21.31;75.33;99403.77;1728651;81;21011;-79
2022/08/09 00:21:26;;;;;;;4.87;2.65;;;;;;;21.34;74.87;99405.75;1722341;81;20977;-81
2022/08/09 00:23:54;;;;;;;5.25;3.17;;;;;;;21.32;74.99;99398.87;1728624;83;22075;-81
2022/08/09 00:26:21;;;;;;;6.05;2.95;;;;;;;21.36;74.84;99390.63;1718286;83;21001;-81
2022/08/09 00:28:48;;;;;;;5.78;2.87;;;;;;;21.37;74.73;99379.60;1729389;81;21530;-80
2022/08/09 00:31:15;;;;;;;5.10;3.02;;;;;;;21.38;74.64;99386.58;1724034;81;21015;-81
2022/08/09 00:33:42;;;;;;;9.10;3.20;;;;;;;21.37;74.81;99392.83;1729791;81;21022;-80
2022/08/09 00:36:10;;;;;;;5.75;3.47;;;;;;;21.36;75.16;99377.41;1726593;81;21458;-82
2022/08/09 00:38:38;;;;;;;5.50;3.30;;;;;;;21.37;75.06;99375.64;1729766;83;21037;-79
2022/08/09 00:41:06;;;;;;;6.60;3.50;;;;;;;21.42;75.00;99375.69;1716152;81;20949;-79
2022/08/09 00:43:35;;;;;;;7.00;3.77;;;;;;;21.40;74.85;99374.09;1723914;81;21041;-79
2022/08/09 00:46:01;;;;;;;8.88;3.40;;;;;;;21.41;74.82;99367.87;1723409;81;21002;-80
2022/08/09 00:48:27;;;;;;;6.40;3.10;;;;;;;21.40;74.65;99368.32;1725629;81;21489;-80
2022/08/09 00:50:54;;;;;;;5.72;3.12;;;;;;;21.43;75.18;99360.72;1709474;81;21337;-81
2022/08/09 00:53:21;;;;;;;7.25;3.50;;;;;;;21.43;75.51;99360.23;1733934;82;20999;-79
2022/08/09 00:55:48;;;;;;;6.78;3.47;;;;;;;21.38;75.00;99355.67;1759909;80;21003;-81
2022/08/09 00:58:15;;;;;;;7.25;3.52;;;;;;;21.36;75.46;99356.25;1761082;80;21043;-79
2022/08/09 01:00:42;;;;;;;5.55;3.30;;;;;;;21.38;75.70;99353.52;1730084;83;21014;-80
2022/08/09 01:03:34;;;;;;;6.03;3.65;;;;;;;21.39;75.19;99351.27;1752535;80;21584;-80
2022/08/09 01:06:24;;;;;;;7.37;3.58;;;;;;;21.39;74.96;99346.81;1731437;81;20955;-80
2022/08/09 01:09:28;;;;;;;8.55;3.47;;;;;;;21.39;74.96;99347.30;1732852;81;21050;-79
2022/08/09 01:12:15;;;;;;;9.05;4.17;;;;;;;21.39;75.07;99348.62;1740742;80;21543;-79
2022/08/09 01:14:48;;;;;;;6.40;3.42;;;;;;;21.39;74.79;99343.33;1716120;80;21007;-80
2022/08/09 01:17:20;;;;;;;6.25;3.62;;;;;;;21.34;73.92;99346.73;1740317;80;21546;-81
2022/08/09 01:19:51;;;;;;;6.58;3.83;;;;;;;21.29;73.94;99347.50;1765745;80;20987;-79
2022/08/09 01:22:51;;;;;;;6.05;3.40;;;;;;;21.23;74.26;99339.03;1755997;80;21006;-81
2022/08/09 01:25:43;;;;;;;7.55;3.30;;;;;;;21.23;73.74;99342.16;1752212;80;20987;-81
2022/08/09 01:28:13;;;;;;;5.58;3.70;;;;;;;21.21;74.41;99345.37;1754540;81;20971;-81
2022/08/09 01:30:43;;;;;;;6.10;3.42;;;;;;;21.20;74.03;99343.66;1753618;80;21014;-81
2022/08/09 01:33:11;;;;;;;6.40;3.37;;;;;;;21.19;73.90;99346.80;1757586;80;21006;-80
2022/08/09 01:35:49;;;;;;;7.25;3.35;;;;;;;21.20;74.27;99344.98;1760189;81;20980;-81
2022/08/09 01:38:21;;;;;;;5.70;3.67;;;;;;;21.20;74.62;99343.19;1766154;80;21518;-83
2022/08/09 01:40:55;;;;;;;8.45;4.40;;;;;;;21.22;74.61;99343.93;1761174;80;20959;-83
2022/08/09 01:43:22;;;;;;;6.53;3.55;;;;;;;21.23;75.20;99336.39;1739055;81;21025;-82
2022/08/09 01:45:51;;;;;;;7.50;3.95;;;;;;;21.26;75.48;99338.81;1733967;82;21032;-82
2022/08/09 01:48:19;;;;;;;7.65;3.95;;;;;;;21.30;75.49;99341.27;1725146;81;21107;-80
2022/08/09 01:50:50;;;;;;;6.87;4.37;;;;;;;21.34;75.97;99342.28;1724606;81;21071;-81
2022/08/09 01:53:18;;;;;;;6.92;4.53;;;;;;;21.37;76.11;99340.77;1761397;81;21060;-81
2022/08/09 01:55:47;;;;;;;8.03;4.22;;;;;;;21.40;76.23;99337.07;1745516;82;21039;-81
2022/08/09 01:58:15;;;;;;;8.63;4.35;;;;;;;21.42;76.20;99333.84;1761145;81;21022;-80
2022/08/09 02:00:44;;;;;;;8.33;4.70;;;;;;;21.43;76.56;99331.14;1747332;80;21054;-81
2022/08/09 02:03:13;;;;;;;9.80;4.80;;;;;;;21.45;76.14;99333.69;1759829;80;21043;-80
2022/08/09 02:05:43;;;;;;;7.35;4.35;;;;;;;21.45;76.29;99333.21;1720791;81;21046;-80
2022/08/09 02:08:13;;;;;;;9.18;4.12;;;;;;;21.47;76.35;99333.11;1756071;80;21050;-81
2022/08/09 02:10:44;;;;;;;8.20;4.30;;;;;;;21.48;76.43;99330.83;1752126;81;21519;-81
2022/08/09 02:13:14;;;;;;;9.45;4.92;;;;;;;21.50;76.95;99328.09;1756224;81;21031;-80
2022/08/09 02:15:48;;;;;;;6.97;4.40;;;;;;;21.50;76.44;99334.22;1726911;81;21472;-81
2022/08/09 02:18:20;;;;;;;6.00;4.08;;;;;;;21.51;76.29;99336.41;1771575;78;20981;-80
2022/08/09 02:20:51;;;;;;;7.60;4.67;;;;;;;21.53;75.96;99335.34;1783672;78;20948;-80
2022/08/09 02:23:25;;;;;;;7.25;4.47;;;;;;;21.48;75.76;99329.98;1767844;78;21049;-81
2022/08/09 02:25:56;;;;;;;7.55;4.47;;;;;;;21.35;75.86;99332.09;1782520;80;21008;-81
2022/08/09 02:28:28;;;;;;;8.83;4.70;;;;;;;21.26;76.46;99332.69;1783718;78;21093;-81
2022/08/09 02:31:05;;;;;;;9.23;3.60;;;;;;;21.17;76.04;99324.02;1782923;78;20999;-80
2022/08/09 02:33:37;;;;;;;6.08;3.58;;;;;;;21.12;75.99;99323.02;1786558;78;20987;-80
2022/08/09 02:36:07;;;;;;;8.18;3.77;;;;;;;21.07;76.52;99326.45;1788451;78;20966;-81
2022/08/09 02:38:42;;;;;;;9.65;3.45;;;;;;;21.02;75.65;99325.40;1781838;78;21447;-81
2022/08/09 02:41:12;;;;;;;4.97;3.27;;;;;;;20.99;76.09;99330.03;1780437;78;21034;-80
2022/08/09 02:43:43;;;;;;;8.25;3.45;;;;;;;20.92;75.90;99332.23;1783867;78;20978;-81
2022/08/09 02:46:12;;;;;;;7.78;4.10;;;;;;;20.90;75.84;99335.92;1789319;78;21004;-80
2022/08/09 02:48:42;;;;;;;7.55;3.60;;;;;;;20.87;76.51;99331.70;1780440;78;20943;-80
2022/08/09 02:51:11;;;;;;;6.53;3.90;;;;;;;20.81;76.25;99335.57;1789260;78;21035;-80
2022/08/09 02:53:42;;;;;;;7.92;4.50;;;;;;;20.78;77.74;99330.47;1778113;79;21102;-80
2022/08/09 02:56:10;;;;;;;9.30;4.60;;;;;;;20.77;78.13;99326.59;1783168;80;21003;-81
2022/08/09 02:58:38;;;;;;;10.60;4.78;;;;;;;20.76;77.29;99328.39;1760022;78;20994;-81
2022/08/09 03:01:07;;;;;;;8.03;5.00;;;;;;;20.77;78.63;99326.59;1810409;78;21002;-79
2022/08/09 03:03:36;;;;;;;9.95;4.40;;;;;;;20.74;78.08;99326.33;1785314;78;20975;-81
2022/08/09 03:06:05;;;;;;;7.53;4.35;;;;;;;20.68;78.68;99333.32;1783839;78;20988;-81
2022/08/09 03:08:33;;;;;;;7.15;4.47;;;;;;;20.64;79.29;99335.30;1785543;79;21585;-81
2022/08/09 03:11:01;;;;;;;7.75;4.50;;;;;;;20.63;79.05;99337.58;1753412;80;20999;-79
2022/08/09 03:13:29;;;;;;;6.90;4.17;;;;;;;20.64;78.98;99335.78;1786712;78;20997;-80
2022/08/09 03:15:56;;;;;;;9.23;4.55;;;;;;;20.62;79.50;99342.47;1788460;78;21038;-80
2022/08/09 03:18:23;;;;;;;8.95;4.50;;;;;;;20.65;79.00;99348.90;1788236;78;21011;-80
2022/08/09 03:20:51;;;;;;;10.88;4.90;;;;;;;20.63;79.36;99345.50;1775980;79;21470;-81
2022/08/09 03:23:19;;;;;;;6.92;4.12;;;;;;;20.61;79.37;99350.48;1783229;78;21536;-80
2022/08/09 03:25:48;;;;;;;9.48;4.50;;;;;;;20.63;79.56;99349.47;1751598;80;20959;-80
2022/08/09 03:28:16;;;;;;;7.95;4.15;;;;;;;20.62;80.27;99349.55;1788979;78;20951;-80
2022/08/09 03:30:44;;;;;;;6.62;3.98;;;;;;;20.58;79.81;99354.63;1776652;79;21412;-80
2022/08/09 03:33:13;;;;;;;8.58;4.70;;;;;;;20.62;79.44;99353.52;1780916;78;21487;-81
2022/08/09 03:35:41;;;;;;;8.55;4.60;;;;;;;20.57;79.82;99355.10;1781690;78;21435;-80
2022/08/09 03:38:07;;;;;;;7.53;4.08;;;;;;;20.60;79.94;99356.73;1790275;78;21007;-81
2022/08/09 03:40:34;;;;;;;10.85;4.85;;;;;;;20.58;79.92;99359.91;1782890;78;21292;-80
2022/08/09 03:43:01;;;;;;;7.70;4.70;;;;;;;20.54;79.98;99359.24;1756628;80;21476;-81
2022/08/09 03:45:27;;;;;;;14.10;4.62;;;;;;;20.58;80.50;99366.51;1785891;78;21018;-81
2022/08/09 03:47:54;;;;;;;8.35;4.92;;;;;;;20.60;80.06;99368.61;1767899;78;20987;-80
2022/08/09 03:50:24;;;;;;;11.10;5.00;;;;;;;20.59;79.95;99369.09;1783559;78;20967;-80
2022/08/09 03:52:52;;;;;;;8.15;4.60;;;;;;;20.55;80.20;99375.93;1786046;78;20983;-80
2022/08/09 03:55:19;;;;;;;9.88;4.50;;;;;;;20.53;81.15;99377.37;1783543;80;20959;-80
2022/08/09 03:57:49;;;;;;;10.15;4.65;;;;;;;20.54;80.91;99375.56;1787906;78;20995;-82
2022/08/09 04:00:16;;;;;;;7.90;4.28;;;;;;;20.52;80.03;99376.14;1792122;78;20960;-80
2022/08/09 04:02:44;;;;;;;8.45;4.78;;;;;;;20.51;80.29;99388.95;1782583;78;21487;-81
2022/08/09 04:05:12;;;;;;;8.20;4.35;;;;;;;20.51;79.81;99387.62;1787471;80;21101;-81
2022/08/09 04:07:39;;;;;;;7.37;4.45;;;;;;;20.49;80.47;99387.72;1738838;80;20959;-81
2022/08/09 04:10:06;;;;;;;8.43;4.42;;;;;;;20.49;80.04;99389.52;1787602;78;21495;-81
2022/08/09 04:12:49;;;;;;;6.87;4.20;;;;;;;20.48;81.20;99389.16;1772417;80;21046;-81
2022/08/09 04:15:17;;;;;;;7.33;4.45;;;;;;;20.50;80.20;99396.52;1790687;78;21470;-80
2022/08/09 04:17:44;;;;;;;7.53;3.98;;;;;;;20.48;80.25;99393.12;1785482;78;21078;-80
2022/08/09 04:20:12;;;;;;;7.55;3.90;;;;;;;20.45;80.49;99391.48;1815297;78;21026;-81
2022/08/09 04:22:40;;;;;;;8.55;4.00;;;;;;;20.48;80.09;99394.44;1785879;78;20971;-81
2022/08/09 04:25:08;;;;;;;10.00;3.92;;;;;;;20.41;80.29;99405.83;1790320;78;20963;-81
2022/08/09 04:27:40;;;;;;;9.48;4.22;;;;;;;20.41;80.55;99402.73;1775034;80;21315;-81
2022/08/09 04:30:08;;;;;;;9.05;4.17;;;;;;;20.46;80.78;99403.28;1773340;78;21015;-80
2022/08/09 04:32:35;;;;;;;9.83;4.65;;;;;;;20.50;79.94;99408.39;1772549;78;21004;-80
2022/08/09 04:35:01;;;;;;;7.12;3.87;;;;;;;20.49;80.05;99406.20;1805637;78;20967;-81
2022/08/09 04:37:28;;;;;;;8.18;4.05;;;;;;;20.54;80.08;99413.86;1790133;78;21050;-78
2022/08/09 04:39:54;;;;;;;8.15;3.83;;;;;;;20.56;80.46;99414.62;1788944;78;20927;-79
2022/08/09 04:42:21;;;;;;;8.58;3.90;;;;;;;20.60;80.48;99418.80;1787906;78;21111;-79
2022/08/09 04:44:48;;;;;;;5.67;3.52;;;;;;;20.63;79.98;99419.47;1767675;78;21005;-81
2022/08/09 04:47:14;;;;;;;9.88;4.08;;;;;;;20.66;80.41;99417.10;1774282;78;21043;-81
2022/08/09 04:49:41;;;;;;;8.75;3.75;;;;;;;20.71;80.24;99419.00;1779201;78;21017;-80
2022/08/09 04:52:08;;;;;;;8.90;4.25;;;;;;;20.76;79.80;99423.51;1791951;79;20987;-81
2022/08/09 04:54:35;;;;;;;6.55;3.67;;;;;;;20.82;79.75;99425.77;1777538;79;21080;-81
2022/08/09 04:57:01;;;;;;;10.78;4.03;;;;;;;20.88;79.27;99422.37;1739169;82;20976;-80
2022/08/09 04:59:27;;;;;;;9.50;3.95;;;;;;;20.92;79.22;99419.92;1729202;81;21024;-82
2022/08/09 05:01:54;;;;;;;7.08;3.67;;;;;;;20.95;78.90;99424.99;1740004;82;21043;-81
2022/08/09 05:04:21;;;;;;;6.42;3.87;;;;;;;21.00;78.44;99426.89;1719273;83;21651;-81
2022/08/09 05:06:47;;;;;;;5.72;3.77;;;;;;;20.98;78.12;99424.81;1729308;82;21047;-80
2022/08/09 05:09:14;;;;;;;7.62;3.83;;;;;;;21.01;78.58;99421.52;1739657;80;20995;-81
2022/08/09 05:11:41;;;;;;;6.45;3.60;;;;;;;21.07;77.98;99425.57;1726751;81;20964;-81
2022/08/09 05:14:08;;;;;;;8.20;4.17;;;;;;;21.07;78.00;99426.89;1749464;82;21011;-81
2022/08/09 05:16:35;;;;;;;7.00;3.70;;;;;;;21.10;78.04;99422.72;1725488;81;21074;-80
2022/08/09 05:19:02;;;;;;;6.05;3.52;;;;;;;21.17;77.91;99426.68;1732200;81;21012;-82
2022/08/09 05:21:29;;;;;;;7.10;3.77;;;;;;;21.23;77.89;99436.02;1725913;81;21046;-81
2022/08/09 05:23:55;;;;;;;7.35;3.45;;;;;;;21.26;77.33;99436.65;1737653;82;21507;-82
2022/08/09 05:26:22;;;;;;;7.55;3.35;;;;;;;21.31;77.28;99439.02;1722616;81;20996;-83
2022/08/09 05:28:48;;;;;;;5.60;3.20;;;;;;;21.36;77.37;99442.68;1745743;81;21018;-81
2022/08/09 05:31:16;;;;;;;8.60;3.92;;;;;;;21.38;76.98;99438.14;1728105;80;21039;-81
2022/08/09 05:33:43;;;;;;;7.37;3.62;;;;;;;21.43;76.90;99440.06;1734076;81;21012;-81
2022/08/09 05:36:09;;;;;;;11.15;3.77;;;;;;;21.40;76.82;99450.31;1729739;83;21017;-81
2022/08/09 05:38:36;;;;;;;7.72;3.83;;;;;;;21.43;76.97;99456.77;1731076;82;21054;-80
2022/08/09 05:41:03;;;;;;;8.98;3.85;;;;;;;21.49;76.77;99452.02;1746668;80;20975;-81
2022/08/09 05:43:30;;;;;;;6.12;3.50;;;;;;;21.53;76.78;99448.25;1716357;81;21636;-80
2022/08/09 05:45:56;;;;;;;9.80;3.95;;;;;;;21.53;76.45;99451.73;1746224;80;20967;-81
2022/08/09 05:48:22;;;;;;;6.70;3.37;;;;;;;21.58;76.43;99454.91;1711841;81;21530;-82
2022/08/09 05:50:49;;;;;;;7.72;4.00;;;;;;;21.64;76.37;99447.91;1752471;80;21006;-79
2022/08/09 05:53:16;;;;;;;13.45;4.10;;;;;;;21.67;75.94;99452.65;1752739;80;21003;-81
2022/08/09 05:55:42;;;;;;;6.22;3.35;;;;;;;21.70;75.92;99455.91;1755678;80;20994;-81
2022/08/09 05:58:10;;;;;;;5.92;3.40;;;;;;;21.73;75.68;99453.09;1738345;80;21570;-81
2022/08/09 06:00:37;;;;;;;7.15;3.67;;;;;;;21.79;75.49;99461.10;1766210;80;20987;-80
2022/08/09 06:03:04;;;;;;;6.10;3.72;;;;;;;21.84;75.37;99452.36;1743364;80;21048;-81
2022/08/09 06:05:35;;;;;;;7.47;3.67;;;;;;;21.84;74.96;99453.23;1729763;82;21460;-81
2022/08/09 06:08:02;;;;;;;7.75;3.60;;;;;;;21.84;75.01;99449.27;1743367;80;21070;-82
2022/08/09 06:10:37;;;;;;;8.85;3.52;;;;;;;21.88;74.98;99456.50;1789211;78;20955;-82
2022/08/09 06:13:07;;;;;;;6.47;3.37;;;;;;;21.89;74.39;99457.38;1785873;78;20995;-81
2022/08/09 06:15:34;;;;;;;8.18;4.00;;;;;;;21.80;74.58;99454.36;1782619;78;21013;-88
2022/08/09 06:18:01;;;;;;;8.58;4.15;;;;;;;21.82;74.82;99457.75;1794323;78;20988;-85
2022/08/09 06:20:28;;;;;;;6.42;3.77;;;;;;;21.84;74.89;99453.23;1790213;78;21002;-86
2022/08/09 06:22:55;;;;;;;7.67;3.85;;;;;;;21.88;75.10;99451.21;1788958;78;20999;-86
2022/08/09 06:25:22;;;;;;;8.98;3.45;;;;;;;21.93;74.74;99454.90;1795536;78;20987;-87
2022/08/09 06:27:48;;;;;;;7.92;3.77;;;;;;;21.94;74.97;99452.13;1800578;78;20971;-85
2022/08/09 06:30:15;;;;;;;16.27;3.50;;;;;;;21.96;74.65;99450.22;1786561;78;21010;-85
2022/08/09 06:32:43;;;;;;;8.75;3.52;;;;;;;21.93;74.58;99450.45;1790942;79;20994;-87
2022/08/09 06:35:10;;;;;;;14.70;3.90;;;;;;;21.94;74.60;99445.98;1796906;78;21261;-86
2022/08/09 06:37:37;;;;;;;10.53;3.33;;;;;;;21.91;74.78;99448.38;1805436;79;20999;-88
2022/08/09 06:40:05;;;;;;;6.85;3.20;;;;;;;21.92;74.25;99447.41;1777405;78;20998;-87
2022/08/09 06:42:32;;;;;;;9.53;3.27;;;;;;;21.95;74.37;99447.70;1791952;78;21553;-85
2022/08/09 06:44:59;;;;;;;9.93;3.20;;;;;;;22.02;74.29;99449.84;1791952;78;21024;-86
2022/08/09 06:47:26;;;;;;;7.15;3.70;;;;;;;22.08;74.32;99451.69;1794560;78;21018;-85
2022/08/09 06:49:52;;;;;;;11.93;3.92;;;;;;;22.18;74.48;99448.79;1793537;79;21026;-85
2022/08/09 06:52:19;;;;;;;10.08;4.17;;;;;;;22.29;74.35;99452.09;1793328;78;22084;-86
2022/08/09 06:54:46;;;;;;;7.53;3.90;;;;;;;22.36;74.08;99456.87;1788176;78;21010;-86
2022/08/09 06:57:13;;;;;;;9.00;3.72;;;;;;;22.48;74.16;99454.31;1768113;78;20966;-86
2022/08/09 06:59:41;;;;;;;6.67;3.75;;;;;;;22.59;74.27;99451.30;1796752;78;20987;-86
2022/08/09 07:02:08;;;;;;;12.88;4.45;;;;;;;22.71;73.85;99457.55;1791337;78;20979;-86
2022/08/09 07:04:35;;;;;;;8.43;4.12;;;;;;;22.79;73.51;99459.17;1797675;78;21059;-86
2022/08/09 07:07:03;;;;;;;10.35;4.28;;;;;;;22.90;73.38;99465.53;1798039;78;21010;-86
2022/08/09 07:09:30;;;;;;;6.75;3.95;;;;;;;22.98;72.96;99465.86;1779862;78;20986;-85
2022/08/09 07:11:56;;;;;;;10.38;4.10;;;;;;;23.05;72.48;99471.59;1787917;78;20995;-84
2022/08/09 07:14:23;;;;;;;7.10;4.00;;;;;;;23.13;72.43;99473.22;1758089;80;21031;-83
2022/08/09 07:16:50;;;;;;;7.03;3.72;;;;;;;23.22;72.04;99474.74;1752956;80;21042;-84
2022/08/09 07:19:16;;;;;;;5.55;3.72;;;;;;;23.23;70.99;99472.45;1773538;80;21024;-83
2022/08/09 07:21:44;;;;;;;6.40;3.50;;;;;;;23.32;70.66;99472.77;1752008;80;20955;-85
2022/08/09 07:24:11;;;;;;;8.83;3.62;;;;;;;23.42;70.34;99471.14;1755735;80;21040;-85
2022/08/09 07:26:37;;;;;;;5.45;3.27;;;;;;;23.51;70.21;99462.98;1751313;80;20971;-86
2022/08/09 07:29:04;;;;;;;5.75;3.25;;;;;;;23.60;69.62;99469.80;1753973;80;21054;-85
2022/08/09 07:31:31;;;;;;;6.72;3.20;;;;;;;23.72;69.11;99472.52;1749894;80;21163;-86
2022/08/09 07:33:57;;;;;;;7.33;3.22;;;;;;;23.77;69.17;99469.03;1758456;80;20988;-86
2022/08/09 07:36:24;;;;;;;7.50;3.50;;;;;;;23.81;69.12;99468.73;1753992;80;20994;-84
2022/08/09 07:38:51;;;;;;;6.97;4.33;;;;;;;23.82;68.11;99465.11;1788028;78;21557;-85
2022/08/09 07:41:17;;;;;;;7.97;4.47;;;;;;;23.80;67.73;99471.50;1792904;78;20975;-83
2022/08/09 07:43:44;;;;;;;6.65;4.17;;;;;;;23.82;67.90;99469.58;1793055;78;20989;-84
2022/08/09 07:46:10;;;;;;;7.12;3.92;;;;;;;23.94;68.16;99475.30;1788179;78;21023;-85
2022/08/09 07:48:37;;;;;;;7.28;4.00;;;;;;;24.01;67.37;99473.89;1785338;78;20959;-83
2022/08/09 07:51:04;;;;;;;8.58;3.45;;;;;;;24.01;67.58;99477.00;1786578;78;21066;-84
2022/08/09 07:53:31;;;;;;;8.28;3.65;;;;;;;24.06;67.31;99474.86;1791570;79;20987;-85
2022/08/09 07:55:58;;;;;;;6.37;3.75;;;;;;;24.14;66.61;99483.59;1792288;79;20990;-85
2022/08/09 07:58:24;;;;;;;8.58;3.65;;;;;;;24.26;66.51;99487.97;1785694;79;20970;-84
2022/08/09 08:00:51;;;;;;;5.55;3.58;;;;;;;24.41;66.58;99494.78;1791468;79;21092;-86
2022/08/09 08:03:17;;;;;;;6.60;3.70;;;;;;;24.54;66.45;99493.87;1787547;79;21051;-85
2022/08/09 08:05:44;;;;;;;14.70;4.08;;;;;;;24.70;66.48;99490.38;1789553;79;20964;-86
2022/08/09 08:08:11;;;;;;;6.78;4.10;;;;;;;24.87;65.83;99490.87;1790619;79;21002;-85
2022/08/09 08:10:37;;;;;;;8.28;3.90;;;;;;;24.94;65.21;99491.61;1782899;79;20993;-85
2022/08/09 08:13:04;;;;;;;5.45;3.62;;;;;;;25.06;65.46;99494.28;1794007;79;21236;-84
2022/08/09 08:15:31;;;;;;;8.90;4.25;;;;;;;25.17;65.43;99491.13;1787121;79;20999;-85
2022/08/09 08:17:57;;;;;;;7.47;4.62;;;;;;;25.18;65.22;99491.48;1795970;79;21023;-84
2022/08/09 08:20:26;;;;;;;6.08;4.15;;;;;;;25.20;65.02;99491.36;1790501;79;21012;-85
2022/08/09 08:22:53;;;;;;;6.75;4.37;;;;;;;25.28;64.93;99494.78;1780944;79;21553;-86
2022/08/09 08:25:20;;;;;;;8.60;4.22;;;;;;;25.28;64.72;99489.45;1786572;79;21013;-85
2022/08/09 08:27:47;;;;;;;6.05;3.87;;;;;;;25.36;64.77;99494.52;1792688;79;21094;-86
2022/08/09 08:30:13;;;;;;;6.03;4.25;;;;;;;25.47;64.54;99485.68;1788781;79;21510;-85
2022/08/09 08:32:40;;;;;;;7.03;4.47;;;;;;;25.62;64.06;99486.73;1793392;79;21030;-85
2022/08/09 08:35:07;;;;;;;8.00;4.62;;;;;;;25.70;62.89;99489.12;1789947;79;21004;-86
2022/08/09 08:37:34;;;;;;;8.58;4.30;;;;;;;25.73;63.12;99488.88;1785652;79;21097;-83
2022/08/09 08:40:04;;;;;;;7.05;4.45;;;;;;;25.68;62.99;99490.22;1785675;79;20977;-84
2022/08/09 08:42:31;;;;;;;7.58;4.55;;;;;;;25.63;62.93;99489.77;1786357;79;21494;-85
2022/08/09 08:45:00;;;;;;;9.28;4.97;;;;;;;25.53;63.22;99481.68;1792851;79;21026;-86
2022/08/09 08:47:29;;;;;;;7.35;4.40;;;;;;;25.52;63.45;99482.14;1786905;80;21000;-86
2022/08/09 08:49:58;;;;;;;8.35;4.42;;;;;;;25.60;63.44;99477.07;1792554;79;21046;-85
2022/08/09 08:52:28;;;;;;;7.00;4.83;;;;;;;25.66;63.39;99473.53;1786336;78;20990;-84
2022/08/09 08:54:58;;;;;;;6.33;4.10;;;;;;;25.76;63.19;99477.95;1788420;78;20986;-85
2022/08/09 08:57:27;;;;;;;8.05;4.10;;;;;;;25.78;62.26;99474.72;1789765;78;20990;-85
2022/08/09 08:59:54;;;;;;;7.37;3.58;;;;;;;25.78;62.73;99473.84;1789374;79;20983;-85
2022/08/09 09:02:27;;;;;;;7.37;3.87;;;;;;;25.88;62.61;99464.12;1783112;78;20978;-84
2022/08/09 09:04:57;;;;;;;6.37;4.10;;;;;;;26.02;62.57;99470.16;1795675;78;21293;-85
2022/08/09 09:07:26;;;;;;;7.67;4.47;;;;;;;26.08;61.71;99467.81;1754291;80;21057;-84
2022/08/09 09:09:54;;;;;;;7.22;4.35;;;;;;;25.97;59.77;99462.06;1795943;78;20963;-84
2022/08/09 09:12:28;;;;;;;7.95;4.55;;;;;;;26.06;59.79;99458.27;1791705;78;21455;-82
2022/08/09 09:14:58;;;;;;;8.58;4.47;;;;;;;26.20;61.08;99459.28;1791545;78;21005;-83
2022/08/09 09:17:26;;;;;;;10.30;4.33;;;;;;;26.42;60.98;99451.63;1783141;78;20983;-82
2022/08/09 09:19:52;;;;;;;7.45;4.25;;;;;;;26.64;61.18;99455.16;1750531;80;22280;-83
2022/08/09 09:22:21;;;;;;;10.48;4.35;;;;;;;26.87;60.07;99455.34;1759247;80;20964;-84
2022/08/09 09:24:55;;;;;;;8.70;4.33;;;;;;;26.91;59.39;99451.92;1759888;80;21051;-83
2022/08/09 09:27:25;;;;;;;7.90;4.90;;;;;;;27.04;59.64;99454.34;1755542;80;21037;-85
2022/08/09 09:29:54;;;;;;;8.20;4.58;;;;;;;27.30;59.81;99444.08;1750240;80;21071;-85
2022/08/09 09:32:24;;;;;;;6.30;3.80;;;;;;;27.63;59.83;99443.34;1758591;80;21015;-84
2022/08/09 09:35:09;;;;;;;5.97;4.20;;;;;;;27.94;58.79;99442.27;1753044;80;21020;-85
2022/08/09 09:37:38;;;;;;;8.45;3.95;;;;;;;28.11;57.87;99439.38;1745538;80;21531;-84
2022/08/09 09:40:07;;;;;;;6.42;4.45;;;;;;;28.28;57.49;99437.79;1722919;81;21083;-84
2022/08/09 09:42:35;;;;;;;5.85;3.85;;;;;;;28.42;57.11;99436.49;1762112;80;21031;-84
2022/08/09 09:45:06;;;;;;;5.53;4.03;;;;;;;28.55;56.36;99426.83;1747284;80;21010;-84
2022/08/09 09:47:33;;;;;;;8.43;3.62;;;;;;;28.61;54.73;99428.95;1757448;80;20999;-82
2022/08/09 09:50:01;;;;;;;7.92;4.40;;;;;;;28.58;53.05;99426.55;1751307;80;21065;-84
2022/08/09 09:52:28;;;;;;;9.05;4.37;;;;;;;28.62;52.60;99434.63;1759118;80;21055;-82
2022/08/09 09:55:08;;;;;;;5.40;3.47;;;;;;;28.63;52.37;99427.45;1756941;80;21510;-83
2022/08/09 09:57:35;;;;;;;7.67;4.12;;;;;;;28.70;51.21;99430.73;1736031;80;21016;-83
2022/08/09 10:00:02;;;;;;;6.25;3.90;;;;;;;28.76;52.21;99434.16;1756092;80;20982;-84
2022/08/09 10:02:42;;;;;;;6.10;4.35;;;;;;;28.78;51.00;99428.66;1754599;80;21017;-85
2022/08/09 10:05:09;;;;;;;8.95;3.90;;;;;;;28.75;51.54;99429.81;1760362;80;21046;-84
2022/08/09 10:07:36;;;;;;;11.90;4.58;;;;;;;28.84;51.18;99428.07;1760389;80;21083;-83
2022/08/09 10:10:06;;;;;;;7.05;4.00;;;;;;;28.86;51.50;99421.23;1751021;80;20999;-84
2022/08/09 10:12:38;;;;;;;7.20;4.40;;;;;;;28.87;51.58;99417.08;1761918;80;21570;-85
2022/08/09 10:15:15;;;;;;;7.42;4.58;;;;;;;28.94;51.36;99416.81;1755962;80;20964;-83
2022/08/09 10:17:46;;;;;;;11.97;5.40;;;;;;;29.01;50.78;99418.90;1750333;80;22314;-85
2022/08/09 10:20:26;;;;;;;8.95;4.40;;;;;;;28.97;49.59;99418.38;1755609;80;21058;-85
2022/08/09 10:22:58;;;;;;;9.28;5.03;;;;;;;28.79;50.20;99412.97;1747979;80;21051;-85
2022/08/09 10:25:23;;;;;;;7.85;4.70;;;;;;;28.70;50.45;99413.84;1753297;80;21285;-83
2022/08/09 10:27:50;;;;;;;7.45;4.47;;;;;;;28.66;49.63;99411.95;1754726;80;21040;-84
2022/08/09 10:30:18;;;;;;;6.58;4.55;;;;;;;28.72;50.51;99406.01;1752165;80;21051;-85
2022/08/09 10:32:45;;;;;;;7.70;4.35;;;;;;;28.69;50.32;99409.00;1792785;78;20928;-83
2022/08/09 10:35:12;;;;;;;6.85;4.92;;;;;;;28.71;50.45;99407.48;1796773;78;21508;-85
2022/08/09 10:37:39;;;;;;;7.03;4.85;;;;;;;28.72;49.58;99401.16;1792754;78;20956;-86
2022/08/09 10:40:07;;;;;;;10.30;4.83;;;;;;;28.75;49.40;99400.88;1792915;78;21010;-85
2022/08/09 10:42:34;;;;;;;11.28;5.15;;;;;;;28.85;50.25;99400.81;1789799;79;21003;-87
2022/08/09 10:45:08;;;;;;;8.38;5.22;;;;;;;28.85;50.49;99406.16;1792494;78;21010;-86
2022/08/09 10:48:04;;;;;;;5.15;3.87;;;;;;;28.78;50.08;99398.40;1788973;78;20988;-88
2022/08/09 10:51:08;;;;;;;8.05;4.10;;;;;;;28.63;49.37;99398.02;1788736;78;20999;-86
2022/08/09 10:54:04;;;;;;;5.72;3.80;;;;;;;28.34;50.41;99394.44;1789591;78;21001;-86
2022/08/09 10:56:36;;;;;;;9.45;4.37;;;;;;;28.35;50.25;99393.45;1756048;80;21008;-85
2022/08/09 10:59:27;;;;;;;7.60;4.00;;;;;;;28.21;50.35;99381.87;1792973;78;21025;-85
2022/08/09 11:17:27;;;;;;;7.92;3.85;;;;;;;28.73;47.26;99376.95;1785681;78;21003;-85
2022/08/09 11:20:03;;;;;;;8.75;3.65;;;;;;;28.66;47.23;99368.31;1779531;78;21035;-84
2022/08/09 11:22:47;;;;;;;6.70;4.05;;;;;;;28.65;47.04;99362.13;1782699;78;21024;-82
2022/08/09 11:25:21;;;;;;;8.80;4.20;;;;;;;28.59;46.90;99365.41;1784388;78;21109;-86
2022/08/09 11:27:55;;;;;;;6.60;4.03;;;;;;;28.56;46.95;99358.49;1779934;80;21021;-85
2022/08/09 11:30:29;;;;;;;6.45;4.00;;;;;;;28.53;46.78;99352.59;1782404;80;20945;-85
2022/08/09 11:33:19;;;;;;;13.65;4.37;;;;;;;28.61;46.57;99357.20;1785327;80;20988;-85
2022/08/09 11:35:56;;;;;;;8.40;3.90;;;;;;;28.64;47.00;99352.41;1792189;80;21019;-86
2022/08/09 11:38:32;;;;;;;8.93;4.05;;;;;;;28.79;45.93;99346.56;1783070;79;21076;-81
2022/08/09 11:41:10;;;;;;;12.30;4.45;;;;;;;28.80;46.12;99349.09;1788319;80;21023;-84
2022/08/09 11:43:47;;;;;;;6.40;3.95;;;;;;;28.76;45.45;99342.36;1783908;80;20983;-86
2022/08/09 11:46:15;;;;;;;7.92;4.05;;;;;;;28.76;45.94;99336.50;1773031;80;21010;-85
2022/08/09 11:48:54;;;;;;;7.28;4.42;;;;;;;28.81;46.36;99336.08;1771236;78;21510;-86
2022/08/09 11:51:24;;;;;;;7.40;4.03;;;;;;;28.90;46.33;99335.16;1776375;78;20991;-82
2022/08/09 11:54:17;;;;;;;7.22;3.85;;;;;;;28.98;46.00;99330.39;1773233;78;21019;-83
2022/08/09 11:56:44;;;;;;;8.38;3.92;;;;;;;28.98;45.50;99325.05;1784388;78;21075;-85
2022/08/09 11:59:14;;;;;;;6.15;3.70;;;;;;;29.08;45.59;99326.31;1781201;78;21051;-83